Terminal Aerodrome Forecast
Issued by NWS

Home | Current Version | Previous Version | Text Only | Print | Product List | Glossary On
Versions: 1 2 3 4 5 6 7 8 9 10 11 12 13
377
FTUS44 KLIX 191120
TAFMSY
TAF
KMSY 191120Z 1912/2012 05006KT P6SM FEW100 FEW200
     FM191900 07010KT P6SM FEW035 FEW130=

USA.gov is the U.S. government's official web portal to all federal, state and local government web resources and services.